createdAt,value
2023-01-27T00:01:43.171Z,9.67
2023-01-27T00:05:26.532Z,8.77
2023-01-27T00:09:12.364Z,9.17
2023-01-27T00:13:12.634Z,9.23
2023-01-27T00:16:56.666Z,9.17
2023-01-27T00:20:57.087Z,8.60
2023-01-27T00:24:39.798Z,8.50
2023-01-27T00:28:25.344Z,8.73
2023-01-27T00:32:26.809Z,8.27
2023-01-27T00:36:10.035Z,10.00
2023-01-27T00:39:55.690Z,8.10
2023-01-27T00:43:38.370Z,8.13
2023-01-27T00:47:22.436Z,8.80
2023-01-27T00:51:05.301Z,8.80
2023-01-27T00:54:48.260Z,8.80
2023-01-27T00:58:31.110Z,8.50
2023-01-27T01:02:13.782Z,9.10
2023-01-27T01:05:57.869Z,8.23
2023-01-27T01:09:40.680Z,8.80
2023-01-27T01:13:23.504Z,8.70
2023-01-27T01:17:06.151Z,8.60
2023-01-27T01:20:48.900Z,7.93
2023-01-27T01:24:32.888Z,7.03
2023-01-27T01:28:15.576Z,6.83
2023-01-27T01:31:58.866Z,7.27
2023-01-27T01:35:41.550Z,5.90
2023-01-27T01:39:24.301Z,6.27
2023-01-27T01:43:13.439Z,6.93
2023-01-27T01:46:56.260Z,6.90
2023-01-27T01:50:40.384Z,6.77
2023-01-27T01:54:25.297Z,7.07
2023-01-27T01:58:11.504Z,6.27
2023-01-27T02:01:55.404Z,6.53
2023-01-27T02:05:41.975Z,7.20
2023-01-27T02:09:25.098Z,6.50
2023-01-27T02:13:09.235Z,6.50
2023-01-27T02:16:52.073Z,5.70
2023-01-27T02:20:39.434Z,5.43
2023-01-27T02:24:23.830Z,5.40
2023-01-27T02:28:09.800Z,4.17
2023-01-27T02:31:52.511Z,4.77
2023-01-27T02:35:39.456Z,5.00
2023-01-27T02:39:24.995Z,4.63
2023-01-27T02:43:09.018Z,4.80
2023-01-27T02:46:51.727Z,5.77
2023-01-27T02:50:34.430Z,5.30
2023-01-27T02:54:17.089Z,5.50
2023-01-27T02:57:59.891Z,5.50
2023-01-27T03:01:44.284Z,7.83
2023-01-27T03:05:27.561Z,6.03
2023-01-27T03:09:10.305Z,6.37
2023-01-27T03:12:52.990Z,6.07
2023-01-27T03:16:53.369Z,5.47
2023-01-27T03:20:37.486Z,7.03
2023-01-27T03:24:20.361Z,5.93
2023-01-27T03:28:03.366Z,5.90
2023-01-27T03:31:46.274Z,6.83
2023-01-27T03:35:34.497Z,6.30
2023-01-27T03:39:36.241Z,6.57
2023-01-27T03:43:36.674Z,6.50
2023-01-27T03:47:19.396Z,6.53
2023-01-27T03:51:03.006Z,5.90
2023-01-27T03:54:47.229Z,5.93
2023-01-27T03:58:32.828Z,5.43
2023-01-27T04:02:33.068Z,6.13
2023-01-27T04:06:34.501Z,6.10
2023-01-27T04:10:18.947Z,5.47
2023-01-27T04:14:03.022Z,5.77
2023-01-27T04:17:45.652Z,6.17
2023-01-27T04:21:28.472Z,7.20
2023-01-27T04:25:13.321Z,6.50
2023-01-27T04:28:57.441Z,6.03
2023-01-27T04:32:40.111Z,6.77
2023-01-27T04:36:23.069Z,7.13
2023-01-27T04:40:06.736Z,7.30
2023-01-27T04:43:49.401Z,6.60
2023-01-27T04:47:33.425Z,6.03
2023-01-27T04:51:16.226Z,5.67
2023-01-27T04:54:58.868Z,6.17
2023-01-27T04:58:41.617Z,6.50
2023-01-27T05:02:25.195Z,5.30
2023-01-27T05:06:10.214Z,6.00
2023-01-27T05:09:52.934Z,5.93
2023-01-27T05:13:35.775Z,5.80
2023-01-27T05:17:18.531Z,6.30
2023-01-27T05:21:01.960Z,6.60
2023-01-27T05:24:46.008Z,6.70
2023-01-27T05:28:29.246Z,7.13
2023-01-27T05:32:11.984Z,6.40
2023-01-27T05:35:56.054Z,7.13
2023-01-27T05:39:39.744Z,6.90
2023-01-27T05:43:23.878Z,7.43
2023-01-27T05:47:07.604Z,7.23
2023-01-27T05:50:57.040Z,7.17
2023-01-27T05:54:39.833Z,6.47
2023-01-27T05:58:24.205Z,6.63
2023-01-27T06:02:07.271Z,7.20
2023-01-27T06:05:54.336Z,6.27
2023-01-27T06:09:38.827Z,7.13
2023-01-27T06:13:27.688Z,8.33
2023-01-27T06:17:10.359Z,7.73
2023-01-27T06:20:53.183Z,8.43
2023-01-27T06:24:38.754Z,9.17
2023-01-27T06:28:29.164Z,8.47
2023-01-27T06:32:12.315Z,8.30
2023-01-27T06:36:02.552Z,8.87
2023-01-27T06:39:45.278Z,8.00
2023-01-27T06:43:29.379Z,8.03
2023-01-27T06:47:12.055Z,8.17
2023-01-27T06:50:55.368Z,7.23
2023-01-27T06:54:38.178Z,6.50
2023-01-27T06:58:20.929Z,6.90
2023-01-27T07:02:05.057Z,6.83
2023-01-27T07:05:47.845Z,7.23
2023-01-27T07:09:35.398Z,7.33
2023-01-27T07:13:25.691Z,6.97
2023-01-27T07:17:10.198Z,7.27
2023-01-27T07:20:52.996Z,7.40
2023-01-27T07:24:37.438Z,8.57
2023-01-27T07:28:20.139Z,10.13
2023-01-27T07:32:02.861Z,10.03
2023-01-27T07:35:49.854Z,10.23
2023-01-27T07:39:33.548Z,7.87
2023-01-27T07:43:16.361Z,9.43
2023-01-27T07:46:59.957Z,10.57
2023-01-27T07:50:42.724Z,10.83
2023-01-27T07:54:28.829Z,10.40
2023-01-27T07:58:11.511Z,10.23
2023-01-27T08:01:54.415Z,9.93
2023-01-27T08:05:38.571Z,9.83
2023-01-27T08:09:21.340Z,11.10
2023-01-27T08:13:06.724Z,8.97
2023-01-27T08:16:49.672Z,9.63
2023-01-27T08:20:32.424Z,9.03
2023-01-27T08:24:15.224Z,9.47
2023-01-27T08:27:58.046Z,9.60
2023-01-27T08:31:42.445Z,11.27
2023-01-27T08:35:25.185Z,9.50
2023-01-27T08:39:07.888Z,10.00
2023-01-27T08:42:51.334Z,10.07
2023-01-27T08:46:34.141Z,9.93
2023-01-27T08:50:18.360Z,10.30
2023-01-27T08:54:01.095Z,10.53
2023-01-27T08:57:43.887Z,10.37
2023-01-27T09:01:27.030Z,10.57
2023-01-27T09:05:09.810Z,9.37
2023-01-27T09:09:10.717Z,10.37
2023-01-27T09:12:54.078Z,10.37
2023-01-27T09:16:36.816Z,10.57
2023-01-27T09:20:19.772Z,10.13
2023-01-27T09:24:04.003Z,9.90
2023-01-27T09:27:46.693Z,10.27
2023-01-27T09:31:29.491Z,11.23
2023-01-27T09:35:12.843Z,11.30
2023-01-27T09:38:58.945Z,11.03
2023-01-27T09:43:04.519Z,11.03
2023-01-27T09:47:23.694Z,11.63
2023-01-27T09:51:10.658Z,10.60
2023-01-27T09:54:59.748Z,10.70
2023-01-27T09:58:57.050Z,10.63
2023-01-27T10:02:59.361Z,10.27
2023-01-27T10:06:50.079Z,10.77
2023-01-27T10:10:40.947Z,10.63
2023-01-27T10:14:33.528Z,10.13
2023-01-27T10:18:25.612Z,9.63
2023-01-27T10:22:16.241Z,9.93
2023-01-27T10:26:08.506Z,10.10
2023-01-27T10:29:58.215Z,10.00
2023-01-27T10:33:48.941Z,10.17
2023-01-27T10:37:37.641Z,9.40
2023-01-27T10:41:26.674Z,10.13
2023-01-27T10:45:23.670Z,10.40
2023-01-27T10:49:09.002Z,10.10
2023-01-27T10:52:57.501Z,10.97
2023-01-27T10:56:42.896Z,10.50
2023-01-27T11:01:18.899Z,10.53
2023-01-27T11:04:39.123Z,9.70
2023-01-27T11:08:23.418Z,9.60
2023-01-27T11:12:10.194Z,9.40
2023-01-27T11:15:54.799Z,9.57
2023-01-27T11:19:44.201Z,9.77
2023-01-27T11:23:29.316Z,9.63
2023-01-27T11:27:18.932Z,9.90
2023-01-27T11:31:08.952Z,7.87
2023-01-27T11:35:01.328Z,7.47
2023-01-27T11:38:44.089Z,8.80
2023-01-27T11:42:30.953Z,7.90
2023-01-27T11:46:19.057Z,8.60
2023-01-27T11:50:02.121Z,9.60
2023-01-27T11:53:45.488Z,8.93
2023-01-27T11:57:29.410Z,8.73
2023-01-27T12:01:17.955Z,9.47
2023-01-27T12:05:04.995Z,9.37
2023-01-27T12:08:50.087Z,10.87
2023-01-27T12:12:33.104Z,10.10
2023-01-27T12:16:17.489Z,10.43
2023-01-27T12:20:02.690Z,10.30
2023-01-27T12:23:50.757Z,10.10
2023-01-27T12:27:40.288Z,9.27
2023-01-27T12:31:30.949Z,10.03
2023-01-27T12:35:21.273Z,11.30
2023-01-27T12:39:04.138Z,12.00
2023-01-27T12:42:50.968Z,11.87
2023-01-27T12:46:35.708Z,10.03
2023-01-27T12:50:22.651Z,9.27
2023-01-27T12:54:17.026Z,8.73
2023-01-27T12:57:59.984Z,10.07
2023-01-27T13:01:47.095Z,8.80
2023-01-27T13:05:29.888Z,9.00
2023-01-27T13:09:25.377Z,9.07
2023-01-27T13:13:23.131Z,9.43
2023-01-27T13:17:28.304Z,9.80
2023-01-27T13:21:14.779Z,8.90
2023-01-27T13:25:00.659Z,9.33
2023-01-27T13:28:52.840Z,8.57
2023-01-27T13:32:37.960Z,9.50
2023-01-27T13:36:28.067Z,8.43
2023-01-27T13:40:17.984Z,9.53
2023-01-27T13:44:07.074Z,9.53
2023-01-27T13:47:54.578Z,8.87
2023-01-27T13:51:39.524Z,9.87
2023-01-27T13:55:27.981Z,9.67
2023-01-27T13:59:25.682Z,8.90
2023-01-27T14:03:40.947Z,10.27
2023-01-27T14:07:29.193Z,9.83
2023-01-27T14:11:19.080Z,9.77
2023-01-27T14:15:09.435Z,9.50
2023-01-27T14:18:58.422Z,15.13
2023-01-27T14:22:48.112Z,14.60
2023-01-27T14:26:48.282Z,8.40
2023-01-27T14:30:32.866Z,8.40
2023-01-27T14:34:31.467Z,8.57
2023-01-27T14:38:18.969Z,9.20
2023-01-27T14:42:08.026Z,8.40
2023-01-27T14:45:54.892Z,8.03
2023-01-27T14:49:55.396Z,9.03
2023-01-27T14:53:48.464Z,8.80
2023-01-27T14:57:38.550Z,9.73
2023-01-27T15:01:28.575Z,9.33
2023-01-27T15:05:17.563Z,9.60
2023-01-27T15:09:05.875Z,10.00
2023-01-27T15:12:59.295Z,10.27
2023-01-27T15:16:51.821Z,9.47
2023-01-27T15:20:48.503Z,11.10
2023-01-27T15:24:53.278Z,10.43
2023-01-27T15:28:41.954Z,11.63
2023-01-27T15:32:29.879Z,10.60
2023-01-27T15:36:31.946Z,9.70
2023-01-27T15:40:17.015Z,9.13
2023-01-27T15:44:16.592Z,9.47
2023-01-27T15:48:01.568Z,8.63
2023-01-27T15:51:45.665Z,9.17
2023-01-27T15:55:30.122Z,9.60
2023-01-27T15:59:15.896Z,10.77
2023-01-27T16:03:02.391Z,10.67
2023-01-27T16:06:52.159Z,9.70
2023-01-27T16:10:35.942Z,9.40
2023-01-27T16:14:48.543Z,11.97
2023-01-27T16:18:42.784Z,10.53
2023-01-27T16:22:28.716Z,11.13
2023-01-27T16:26:25.021Z,10.83
2023-01-27T16:30:14.344Z,11.07
2023-01-27T16:33:59.116Z,15.73
2023-01-27T16:38:00.110Z,12.00
2023-01-27T16:41:52.485Z,11.43
2023-01-27T16:45:43.779Z,23.80
2023-01-27T16:49:28.909Z,13.47
2023-01-27T16:53:18.912Z,12.50
2023-01-27T16:57:04.900Z,12.80
2023-01-27T17:00:50.834Z,14.00
2023-01-27T17:04:33.687Z,16.47
2023-01-27T17:08:22.883Z,14.30
2023-01-27T17:12:06.524Z,14.40
2023-01-27T17:15:49.252Z,13.83
2023-01-27T17:19:34.040Z,13.33
2023-01-27T17:23:29.136Z,12.67
2023-01-27T17:27:22.687Z,12.33
2023-01-27T17:31:07.999Z,12.87
2023-01-27T17:34:51.867Z,12.70
2023-01-27T17:38:44.401Z,13.20
2023-01-27T17:42:29.778Z,13.90
2023-01-27T17:46:16.636Z,12.37
2023-01-27T17:49:59.404Z,12.17
2023-01-27T17:53:43.830Z,12.27
2023-01-27T17:57:32.419Z,11.70
2023-01-27T18:01:16.000Z,12.73
2023-01-27T18:05:00.976Z,12.07
2023-01-27T18:08:52.466Z,13.07
2023-01-27T18:12:36.737Z,12.73
2023-01-27T18:16:20.642Z,13.10
2023-01-27T18:20:04.925Z,12.57
2023-01-27T18:23:51.291Z,12.80
2023-01-27T18:27:35.944Z,12.80
2023-01-27T18:31:22.024Z,11.60
2023-01-27T18:35:22.715Z,12.67
2023-01-27T18:39:28.877Z,12.53
2023-01-27T18:43:11.857Z,13.77
2023-01-27T18:46:55.208Z,13.10
2023-01-27T18:50:41.833Z,12.60
2023-01-27T18:54:26.386Z,12.43
2023-01-27T18:58:12.625Z,12.47
2023-01-27T19:01:55.362Z,11.90
2023-01-27T19:05:38.102Z,12.00
2023-01-27T19:09:20.789Z,12.60
2023-01-27T19:13:05.730Z,12.37
2023-01-27T19:16:48.502Z,11.63
2023-01-27T19:20:31.882Z,11.87
2023-01-27T19:24:15.264Z,11.13
2023-01-27T19:28:02.474Z,11.20
2023-01-27T19:31:46.616Z,12.07
2023-01-27T19:35:31.733Z,12.27
2023-01-27T19:39:16.961Z,12.17
2023-01-27T19:42:59.843Z,13.20
2023-01-27T19:46:43.608Z,13.30
2023-01-27T19:50:29.452Z,13.70
2023-01-27T19:54:12.151Z,14.27
2023-01-27T19:57:54.913Z,14.07
2023-01-27T20:01:37.562Z,14.70
2023-01-27T20:05:20.826Z,15.33
2023-01-27T20:09:05.582Z,13.40
2023-01-27T20:12:54.529Z,12.67
2023-01-27T20:16:37.257Z,11.90
2023-01-27T20:20:20.534Z,12.77
2023-01-27T20:24:05.144Z,12.27
2023-01-27T20:27:49.428Z,12.47
2023-01-27T20:31:32.132Z,12.43
2023-01-27T20:35:16.250Z,12.77
2023-01-27T20:38:59.016Z,13.53
2023-01-27T20:42:43.127Z,12.77
2023-01-27T20:46:25.860Z,13.13
2023-01-27T20:50:09.922Z,12.60
2023-01-27T20:53:52.579Z,12.30
2023-01-27T20:57:35.707Z,12.60
2023-01-27T21:01:21.234Z,13.03
2023-01-27T21:05:03.995Z,12.33
2023-01-27T21:08:47.616Z,11.73
2023-01-27T21:12:30.387Z,12.57
2023-01-27T21:16:13.279Z,12.40
2023-01-27T21:19:57.331Z,12.73
2023-01-27T21:23:40.185Z,12.77
2023-01-27T21:27:22.881Z,14.80
2023-01-27T21:31:06.919Z,13.07
2023-01-27T21:34:49.707Z,13.23
2023-01-27T21:38:33.868Z,12.93
2023-01-27T21:42:33.799Z,12.40
2023-01-27T21:46:16.445Z,12.60
2023-01-27T21:50:02.439Z,12.87
2023-01-27T21:53:46.627Z,12.97
2023-01-27T21:57:29.556Z,13.33
2023-01-27T22:01:12.416Z,12.70
2023-01-27T22:04:55.264Z,13.43
2023-01-27T22:08:38.084Z,12.47
2023-01-27T22:12:23.328Z,13.43
2023-01-27T22:16:06.971Z,14.03
2023-01-27T22:19:49.725Z,16.27
2023-01-27T22:23:32.524Z,14.10
2023-01-27T22:27:15.214Z,12.80
2023-01-27T22:31:02.623Z,13.57
2023-01-27T22:34:45.359Z,12.07
2023-01-27T22:38:28.167Z,12.30
2023-01-27T22:42:11.082Z,12.93
2023-01-27T22:45:53.903Z,13.03
2023-01-27T22:49:38.035Z,12.60
2023-01-27T22:53:20.704Z,12.13
2023-01-27T22:57:03.357Z,12.53
2023-01-27T23:00:46.055Z,12.13
2023-01-27T23:04:28.674Z,12.63
2023-01-27T23:08:12.777Z,13.77
2023-01-27T23:11:56.451Z,13.50
2023-01-27T23:15:39.127Z,14.03
2023-01-27T23:19:22.187Z,15.37
2023-01-27T23:23:04.960Z,14.33
2023-01-27T23:26:49.137Z,13.77
2023-01-27T23:30:31.841Z,13.47
2023-01-27T23:34:14.651Z,13.97
2023-01-27T23:37:57.284Z,14.13
2023-01-27T23:41:39.979Z,14.50
2023-01-27T23:45:23.972Z,13.47
2023-01-27T23:49:07.783Z,15.10
2023-01-27T23:52:50.518Z,13.97
2023-01-27T23:56:33.215Z,14.93
